Time;durP1;ratioP1;P1;durP2;ratioP2;P2;SDS_P1;SDS_P2;PMS_P1;PMS_P2;Temp;Humidity;BMP_temperature;BMP_pressure;BME280_temperature;BME280_humidity;BME280_pressure;Samples;Min_cycle;Max_cycle;Signal;HPM_P1;HPM_P2
2022/11/27 00:02:20;;;;;;;67.70;30.30;;;;;;;2.18;84.67;101517.61;126551;1288;107400;-74
2022/11/27 00:05:22;;;;;;;65.10;29.80;;;;;;;2.20;84.60;101513.84;126620;1303;97985;-74
2022/11/27 00:08:25;;;;;;;66.50;30.30;;;;;;;2.23;84.61;101510.21;126589;1295;99053;-73
2022/11/27 00:11:30;;;;;;;69.00;31.70;;;;;;;2.22;84.38;101506.02;126641;1292;98037;-73
2022/11/27 00:14:33;;;;;;;67.60;31.40;;;;;;;2.23;84.47;101501.23;126662;1296;107592;-73
2022/11/27 00:17:35;;;;;;;65.10;31.70;;;;;;;2.20;84.33;101499.10;126678;1287;99565;-73
2022/11/27 00:20:38;;;;;;;70.20;31.80;;;;;;;2.18;84.50;101503.23;126570;1286;98409;-74
2022/11/27 00:23:41;;;;;;;66.80;30.80;;;;;;;2.17;84.61;101504.31;126519;1294;99141;-74
2022/11/27 00:26:45;;;;;;;56.50;25.30;;;;;;;2.18;84.54;101501.63;126545;1291;99137;-74
2022/11/27 00:29:48;;;;;;;68.60;29.70;;;;;;;2.23;84.36;101503.35;126681;1295;107545;-73
2022/11/27 00:32:50;;;;;;;64.70;29.40;;;;;;;2.26;84.43;101499.02;126607;1287;98215;-73
2022/11/27 00:35:53;;;;;;;64.00;28.80;;;;;;;2.29;84.34;101499.18;126588;1285;99052;-73
2022/11/27 00:38:56;;;;;;;65.50;29.80;;;;;;;2.33;84.45;101502.20;126559;1294;99180;-74
2022/11/27 00:41:59;;;;;;;58.80;28.50;;;;;;;2.33;84.27;101503.56;126652;1296;101599;-74
2022/11/27 00:45:02;;;;;;;62.70;28.40;;;;;;;2.35;84.38;101505.08;126656;1280;98076;-73
2022/11/27 00:48:05;;;;;;;57.70;27.90;;;;;;;2.35;84.27;101502.45;126690;1292;97993;-73
2022/11/27 00:51:11;;;;;;;62.40;27.70;;;;;;;2.33;84.18;101506.56;126693;1293;99244;-73
2022/11/27 00:54:14;;;;;;;69.10;29.70;;;;;;;2.32;84.23;101504.33;126554;1300;107618;-73
2022/11/27 00:57:16;;;;;;;59.80;27.20;;;;;;;2.32;84.20;101504.70;126659;1294;97966;-74
2022/11/27 01:00:21;;;;;;;51.70;24.60;;;;;;;2.33;84.29;101503.23;126707;1296;98780;-73
2022/11/27 01:03:24;;;;;;;53.30;26.80;;;;;;;2.37;84.31;101502.89;126573;1287;107552;-74
2022/11/27 01:06:29;;;;;;;52.80;26.10;;;;;;;2.43;84.23;101498.77;126653;1296;107581;-74
2022/11/27 01:09:32;;;;;;;57.50;27.30;;;;;;;2.49;84.31;101502.89;126808;1296;106489;-73
2022/11/27 01:12:34;;;;;;;53.80;25.80;;;;;;;2.51;84.06;101498.20;126626;1278;98840;-73
2022/11/27 01:15:37;;;;;;;59.20;27.80;;;;;;;2.54;84.17;101499.66;126713;1287;98086;-73
2022/11/27 01:18:41;;;;;;;61.40;28.60;;;;;;;2.54;84.23;101505.08;126708;1294;98002;-74
2022/11/27 01:21:44;;;;;;;55.80;27.20;;;;;;;2.54;84.14;101506.33;126744;1298;107544;-73
2022/11/27 01:24:47;;;;;;;59.70;27.70;;;;;;;2.53;84.03;101507.77;126569;1301;106585;-74
2022/11/27 01:27:49;;;;;;;58.70;27.50;;;;;;;2.52;84.00;101508.36;126610;1293;98749;-72
2022/11/27 01:30:52;;;;;;;62.10;27.90;;;;;;;2.50;84.03;101511.98;126691;1296;97980;-74
2022/11/27 01:33:57;;;;;;;61.70;27.40;;;;;;;2.49;84.14;101513.23;126670;1293;98105;-74
2022/11/27 01:36:59;;;;;;;52.50;24.30;;;;;;;2.51;84.01;101509.81;126617;1296;107501;-73
2022/11/27 01:40:02;;;;;;;61.70;29.80;;;;;;;2.57;84.03;101514.46;126666;1301;98739;-71
2022/11/27 01:43:13;;;;;;;60.40;27.60;;;;;;;2.61;83.94;101515.17;126575;1295;99219;-72
2022/11/27 01:46:30;;;;;;;52.50;25.80;;;;;;;2.61;84.08;101511.10;126648;1301;107474;-74
2022/11/27 01:49:35;;;;;;;53.10;24.80;;;;;;;2.62;84.13;101507.89;126721;1301;107634;-75
2022/11/27 01:52:43;;;;;;;57.00;25.30;;;;;;;2.67;84.03;101506.09;126655;1295;107529;-74
2022/11/27 01:55:52;;;;;;;54.30;25.30;;;;;;;2.66;83.86;101505.61;126712;1289;107549;-73
2022/11/27 01:58:56;;;;;;;57.50;26.20;;;;;;;2.64;84.03;101510.07;126761;1301;107564;-74
2022/11/27 02:01:59;;;;;;;53.00;26.30;;;;;;;2.64;83.82;101506.04;126762;1301;107392;-73
2022/11/27 02:05:02;;;;;;;56.80;26.00;;;;;;;2.62;84.03;101512.64;126680;1283;98075;-73
2022/11/27 02:08:08;;;;;;;56.70;25.30;;;;;;;2.61;84.02;101514.98;126591;1301;98214;-74
2022/11/27 02:11:19;;;;;;;49.50;23.30;;;;;;;2.62;84.00;101519.14;126618;1295;107661;-74
2022/11/27 02:14:28;;;;;;;54.50;26.00;;;;;;;2.65;83.99;101517.42;126718;1301;106609;-75
2022/11/27 02:17:40;;;;;;;58.10;27.70;;;;;;;2.72;84.16;101517.09;126708;1301;107994;-74
2022/11/27 02:20:55;;;;;;;54.80;26.10;;;;;;;2.76;83.93;101519.02;126602;1301;107580;-74
2022/11/27 02:24:41;;;;;;;54.30;26.90;;;;;;;2.78;84.07;101520.70;126672;1293;107511;-74
2022/11/27 02:27:57;;;;;;;59.00;27.20;;;;;;;2.76;83.85;101525.16;126485;1301;107678;-73
2022/11/27 02:31:05;;;;;;;60.80;28.80;;;;;;;2.74;83.78;101529.80;126669;1296;107583;-72
2022/11/27 02:34:21;;;;;;;58.10;28.20;;;;;;;2.72;83.90;101528.35;126614;1301;107580;-72
2022/11/27 02:37:31;;;;;;;58.20;27.30;;;;;;;2.68;83.90;101526.91;126628;1299;107614;-75
2022/11/27 02:40:39;;;;;;;66.20;28.60;;;;;;;2.64;83.80;101526.27;126588;1301;107575;-74
2022/11/27 02:43:46;;;;;;;62.20;27.70;;;;;;;2.63;84.10;101521.89;126682;1291;107546;-73
2022/11/27 02:46:50;;;;;;;53.40;25.00;;;;;;;2.66;83.99;101520.02;126854;1301;107583;-74
2022/11/27 02:49:55;;;;;;;55.90;26.60;;;;;;;2.71;84.05;101515.89;126665;1301;107579;-73
2022/11/27 02:53:05;;;;;;;54.30;26.40;;;;;;;2.77;83.97;101514.77;126598;1298;107512;-74
2022/11/27 02:56:12;;;;;;;56.70;27.70;;;;;;;2.81;84.02;101519.14;126637;1301;107909;-74
2022/11/27 02:59:17;;;;;;;59.90;28.40;;;;;;;2.80;83.96;101525.51;126680;1291;107539;-74
2022/11/27 03:02:26;;;;;;;58.20;27.80;;;;;;;2.81;83.94;101524.27;126490;1296;107593;-74
2022/11/27 03:05:32;;;;;;;58.20;28.10;;;;;;;2.82;83.79;101525.45;126550;1289;107533;-74
2022/11/27 03:08:41;;;;;;;55.80;28.50;;;;;;;2.80;83.82;101522.90;126676;1301;107548;-73
2022/11/27 03:11:45;;;;;;;58.00;27.20;;;;;;;2.79;83.86;101524.88;126685;1293;107539;-74
2022/11/27 03:14:48;;;;;;;62.00;28.20;;;;;;;2.76;83.86;101526.23;126721;1296;107479;-73
2022/11/27 03:17:56;;;;;;;55.90;27.60;;;;;;;2.73;84.05;101523.53;126547;1296;107645;-73
2022/11/27 03:21:11;;;;;;;54.80;26.30;;;;;;;2.76;84.11;101525.00;126594;1284;107479;-74
2022/11/27 03:24:14;;;;;;;58.90;27.60;;;;;;;2.81;83.95;101522.16;126649;1295;107582;-74
2022/11/27 03:27:22;;;;;;;55.20;27.60;;;;;;;2.85;84.00;101521.77;126703;1295;107338;-74
2022/11/27 03:30:24;;;;;;;60.60;27.60;;;;;;;2.88;83.86;101518.83;126648;1294;107534;-74
2022/11/27 03:33:27;;;;;;;56.90;25.80;;;;;;;2.90;83.95;101515.91;126641;1298;99153;-72
2022/11/27 03:36:30;;;;;;;50.20;26.10;;;;;;;2.90;83.80;101515.74;126547;1294;99666;-74
2022/11/27 03:39:33;;;;;;;56.90;26.30;;;;;;;2.89;84.03;101511.39;126592;1294;98417;-74
2022/11/27 03:42:47;;;;;;;58.90;26.10;;;;;;;2.88;83.87;101511.42;126623;1281;99147;-74
2022/11/27 03:45:57;;;;;;;52.20;25.00;;;;;;;2.86;83.72;101509.23;126639;1295;107262;-74
2022/11/27 03:49:07;;;;;;;55.90;25.50;;;;;;;2.84;84.00;101511.25;126522;1298;107775;-74
2022/11/27 03:52:15;;;;;;;54.70;24.40;;;;;;;2.83;83.77;101508.67;126566;1296;107691;-74
2022/11/27 03:55:25;;;;;;;48.50;22.00;;;;;;;2.85;83.90;101507.36;126643;1295;106514;-73
2022/11/27 03:58:35;;;;;;;47.20;23.50;;;;;;;2.91;83.95;101500.38;126743;1296;106774;-74
2022/11/27 04:01:39;;;;;;;49.20;22.80;;;;;;;2.97;84.05;101501.71;126620;1294;107622;-73
2022/11/27 04:04:42;;;;;;;49.70;23.20;;;;;;;3.01;83.89;101502.91;126672;1301;107516;-73
2022/11/27 04:07:45;;;;;;;46.90;23.20;;;;;;;3.00;83.56;101503.83;126586;1294;99169;-75
2022/11/27 04:10:48;;;;;;;49.00;23.70;;;;;;;2.99;83.69;101504.59;126668;1286;97994;-74
2022/11/27 04:13:51;;;;;;;49.90;23.40;;;;;;;2.98;83.81;101504.63;126631;1301;98313;-74
2022/11/27 04:16:53;;;;;;;48.90;23.50;;;;;;;2.95;83.73;101501.24;126561;1279;98927;-73
2022/11/27 04:19:56;;;;;;;50.70;24.30;;;;;;;2.92;83.66;101505.05;126534;1280;97982;-74
2022/11/27 04:22:59;;;;;;;46.60;22.00;;;;;;;2.89;83.83;101502.77;126630;1294;98383;-74
2022/11/27 04:26:01;;;;;;;45.20;21.70;;;;;;;2.86;83.81;101498.34;126667;1282;99030;-74
2022/11/27 04:29:04;;;;;;;45.30;20.30;;;;;;;2.86;83.89;101497.64;126721;1289;98003;-73
2022/11/27 04:32:07;;;;;;;42.80;20.90;;;;;;;2.91;83.77;101499.86;126639;1288;98069;-74
2022/11/27 04:35:10;;;;;;;51.60;24.80;;;;;;;2.95;83.86;101503.69;126670;1294;99184;-74
2022/11/27 04:38:12;;;;;;;44.80;22.30;;;;;;;2.96;83.86;101503.31;126677;1296;99160;-74
2022/11/27 04:41:15;;;;;;;44.80;21.50;;;;;;;2.97;83.78;101501.89;126670;1282;98187;-74
2022/11/27 04:44:18;;;;;;;47.00;21.50;;;;;;;2.96;83.86;101504.73;126694;1283;98536;-74
2022/11/27 04:47:21;;;;;;;47.70;22.30;;;;;;;2.93;83.69;101503.45;126696;1295;97982;-74
2022/11/27 04:50:23;;;;;;;48.70;22.70;;;;;;;2.91;83.72;101502.17;126725;1281;99131;-73
2022/11/27 04:53:26;;;;;;;44.30;21.80;;;;;;;2.89;83.86;101502.95;126550;1296;99154;-74
2022/11/27 04:56:29;;;;;;;47.50;22.50;;;;;;;2.86;84.08;101498.85;126565;1287;97989;-74
2022/11/27 04:59:31;;;;;;;44.90;21.50;;;;;;;2.85;83.85;101502.80;126515;1275;99745;-73
2022/11/27 05:02:34;;;;;;;43.00;19.00;;;;;;;2.84;84.16;101503.20;126713;1281;99132;-73
2022/11/27 05:05:37;;;;;;;43.90;21.20;;;;;;;2.88;84.02;101503.72;126565;1294;99250;-74
2022/11/27 05:08:40;;;;;;;142.10;77.60;;;;;;;2.92;83.91;101504.75;126593;1295;98064;-74
2022/11/27 05:11:42;;;;;;;93.20;49.90;;;;;;;2.94;84.00;101505.37;126628;1294;99067;-73
2022/11/27 05:14:45;;;;;;;79.90;47.20;;;;;;;2.95;83.87;101509.85;126566;1295;98936;-74
2022/11/27 05:17:47;;;;;;;359.50;201.00;;;;;;;2.95;83.82;101513.91;126564;1292;98370;-73
2022/11/27 05:20:57;;;;;;;304.20;172.40;;;;;;;2.94;83.92;101511.31;126599;1279;98784;-74
2022/11/27 05:23:59;;;;;;;134.50;67.10;;;;;;;2.92;84.03;101508.45;126629;1299;99138;-73
2022/11/27 05:27:02;;;;;;;62.70;29.50;;;;;;;2.90;83.90;101506.23;126607;1273;99132;-73
2022/11/27 05:30:07;;;;;;;49.40;23.90;;;;;;;2.90;83.94;101503.45;126563;1293;98807;-73
2022/11/27 05:33:10;;;;;;;40.10;19.10;;;;;;;2.92;84.09;101501.58;126586;1295;99099;-73
2022/11/27 05:36:13;;;;;;;44.30;21.80;;;;;;;2.97;84.32;101498.52;126550;1295;98075;-74
2022/11/27 05:39:16;;;;;;;40.80;21.00;;;;;;;3.04;84.11;101499.27;126719;1289;98848;-74
2022/11/27 05:42:19;;;;;;;42.20;21.60;;;;;;;3.07;84.11;101499.79;126704;1281;98517;-74
2022/11/27 05:45:21;;;;;;;97.60;47.80;;;;;;;3.10;83.81;101502.78;126711;1289;98085;-72
2022/11/27 05:48:24;;;;;;;257.60;103.40;;;;;;;3.10;83.91;101492.63;126730;1294;99030;-74
2022/11/27 05:51:27;;;;;;;96.60;41.30;;;;;;;3.08;83.92;101495.86;126613;1284;99174;-74
2022/11/27 05:54:29;;;;;;;73.90;37.90;;;;;;;3.06;84.07;101497.02;126649;1282;99138;-74
2022/11/27 05:57:32;;;;;;;58.70;30.10;;;;;;;3.04;83.87;101502.60;126894;1291;98680;-74
2022/11/27 06:00:35;;;;;;;48.90;22.30;;;;;;;3.01;83.96;101498.51;126824;1287;99042;-74
2022/11/27 06:03:38;;;;;;;46.70;23.20;;;;;;;3.00;84.05;101497.34;126629;1294;111116;-73
2022/11/27 06:06:40;;;;;;;37.40;19.00;;;;;;;3.01;84.02;101494.09;126736;1294;111156;-73
2022/11/27 06:09:43;;;;;;;43.90;20.60;;;;;;;3.04;84.04;101490.45;126641;1294;99186;-74
2022/11/27 06:12:46;;;;;;;42.40;21.50;;;;;;;3.07;84.00;101492.24;126588;1293;98102;-73
2022/11/27 06:15:48;;;;;;;42.80;21.40;;;;;;;3.09;83.93;101489.66;126541;1273;98435;-74
2022/11/27 06:18:52;;;;;;;39.90;20.80;;;;;;;3.11;83.99;101489.06;126683;1280;99053;-75
2022/11/27 06:21:55;;;;;;;41.90;20.20;;;;;;;3.12;83.73;101483.71;126740;1279;98504;-72
2022/11/27 06:24:57;;;;;;;43.10;21.10;;;;;;;3.13;83.82;101485.10;126617;1284;98020;-74
2022/11/27 06:28:00;;;;;;;36.70;18.40;;;;;;;3.11;83.78;101485.88;126713;1288;99036;-74
2022/11/27 06:31:06;;;;;;;42.10;20.20;;;;;;;3.09;83.86;101481.08;126699;1296;99136;-74
2022/11/27 06:34:11;;;;;;;39.00;18.80;;;;;;;3.05;83.82;101484.95;126754;1294;111143;-75
2022/11/27 06:37:14;;;;;;;36.30;18.50;;;;;;;3.04;83.80;101487.80;126696;1289;111250;-75
2022/11/27 06:40:17;;;;;;;30.80;15.20;;;;;;;3.06;84.06;101480.69;126855;1287;98477;-74
2022/11/27 06:43:19;;;;;;;68.10;28.00;;;;;;;3.11;83.86;101482.92;126642;1294;99058;-74
2022/11/27 06:46:23;;;;;;;208.30;58.10;;;;;;;3.16;83.69;101484.40;126526;1296;98758;-74
2022/11/27 06:49:25;;;;;;;108.30;38.20;;;;;;;3.19;83.62;101484.27;126597;1278;101492;-75
2022/11/27 06:52:29;;;;;;;68.20;28.50;;;;;;;3.21;83.59;101482.43;126581;1287;98032;-74
2022/11/27 06:55:32;;;;;;;52.20;23.80;;;;;;;3.21;83.75;101481.90;126692;1295;98076;-74
2022/11/27 06:58:35;;;;;;;45.60;21.70;;;;;;;3.21;83.56;101476.97;126566;1295;99075;-73
2022/11/27 07:01:38;;;;;;;46.80;23.40;;;;;;;3.22;83.63;101477.48;126639;1297;111012;-73
2022/11/27 07:04:40;;;;;;;48.70;25.50;;;;;;;3.20;83.55;101479.31;126544;1275;98431;-74
2022/11/27 07:07:43;;;;;;;116.70;45.40;;;;;;;3.18;83.66;101476.99;126643;1294;98093;-73
2022/11/27 07:10:46;;;;;;;69.10;30.20;;;;;;;3.16;83.63;101475.08;126678;1294;98026;-74
2022/11/27 07:13:49;;;;;;;45.20;21.10;;;;;;;3.19;83.63;101468.98;126665;1281;98747;-73
2022/11/27 07:16:52;;;;;;;44.00;22.50;;;;;;;3.25;83.74;101464.84;126666;1281;98439;-74
2022/11/27 07:19:55;;;;;;;39.80;20.10;;;;;;;3.30;83.88;101466.32;126551;1289;98754;-74
2022/11/27 07:22:57;;;;;;;43.90;22.30;;;;;;;3.35;83.49;101470.83;126703;1288;98430;-74
2022/11/27 07:26:05;;;;;;;76.00;38.60;;;;;;;3.38;83.66;101472.63;126721;1296;98441;-75
2022/11/27 07:29:08;;;;;;;91.60;45.70;;;;;;;3.39;83.57;101476.10;126726;1295;110166;-74
2022/11/27 07:32:11;;;;;;;162.60;75.70;;;;;;;3.41;83.56;101483.20;126724;1276;98524;-74
2022/11/27 07:35:13;;;;;;;82.30;40.10;;;;;;;3.39;83.58;101488.89;126649;1281;98506;-74
2022/11/27 07:38:16;;;;;;;85.00;43.80;;;;;;;3.38;83.59;101492.83;126675;1291;99026;-74
2022/11/27 07:41:19;;;;;;;95.30;45.00;;;;;;;3.38;83.67;101495.45;126758;1274;99178;-74
2022/11/27 07:44:21;;;;;;;57.50;28.10;;;;;;;3.40;83.99;101491.50;126655;1292;98122;-74
2022/11/27 07:47:24;;;;;;;91.10;46.00;;;;;;;3.44;83.86;101494.63;126654;1280;97982;-74
2022/11/27 07:50:26;;;;;;;111.60;54.40;;;;;;;3.52;83.88;101494.58;126676;1294;107575;-74
2022/11/27 07:53:29;;;;;;;86.20;42.80;;;;;;;3.59;83.89;101492.15;126542;1281;97990;-74
2022/11/27 07:56:32;;;;;;;61.20;30.50;;;;;;;3.66;83.91;101489.16;126659;1281;97990;-74
2022/11/27 07:59:34;;;;;;;55.00;26.40;;;;;;;3.72;83.97;101483.91;126626;1292;99115;-73
2022/11/27 08:02:37;;;;;;;49.70;26.20;;;;;;;3.75;83.82;101483.23;126528;1292;98107;-74
2022/11/27 08:05:39;;;;;;;228.50;96.70;;;;;;;3.78;83.82;101485.57;126695;1302;99117;-73
2022/11/27 08:08:42;;;;;;;147.90;72.40;;;;;;;3.81;84.05;101488.75;126616;1294;98076;-74
2022/11/27 08:11:45;;;;;;;55.90;28.20;;;;;;;3.84;83.93;101484.89;126589;1285;98061;-75
2022/11/27 08:14:47;;;;;;;50.00;24.80;;;;;;;3.88;83.98;101482.94;126653;1291;99173;-74
2022/11/27 08:17:50;;;;;;;64.40;32.70;;;;;;;3.93;84.07;101486.35;126532;1293;98103;-74
2022/11/27 08:20:53;;;;;;;49.90;26.60;;;;;;;4.00;83.90;101479.63;126559;1274;98091;-74
2022/11/27 08:23:56;;;;;;;50.70;28.00;;;;;;;4.09;83.94;101479.71;126576;1284;99106;-73
2022/11/27 08:26:59;;;;;;;45.10;24.50;;;;;;;4.17;83.78;101479.46;126697;1281;99141;-74
2022/11/27 08:30:01;;;;;;;46.50;25.20;;;;;;;4.21;83.90;101477.98;126561;1274;98715;-73
2022/11/27 08:33:04;;;;;;;43.90;24.40;;;;;;;4.26;83.84;101481.63;126592;1290;98033;-73
2022/11/27 08:36:09;;;;;;;49.40;25.80;;;;;;;4.29;83.77;101483.92;126564;1290;98752;-74
2022/11/27 08:39:13;;;;;;;45.50;24.40;;;;;;;4.32;83.72;101489.75;126776;1291;97999;-73
2022/11/27 08:42:15;;;;;;;43.50;23.40;;;;;;;4.33;83.86;101490.39;126718;1295;99211;-74
2022/11/27 08:45:18;;;;;;;58.20;31.20;;;;;;;4.33;83.88;101493.76;126718;1295;99604;-74
2022/11/27 08:48:22;;;;;;;56.10;29.70;;;;;;;4.31;83.71;101497.88;126691;1274;98077;-74
2022/11/27 08:51:24;;;;;;;47.90;24.20;;;;;;;4.35;83.88;101503.52;126803;1294;99010;-74
2022/11/27 08:54:27;;;;;;;49.30;26.10;;;;;;;4.42;83.84;101503.30;126644;1295;98765;-75
2022/11/27 08:57:30;;;;;;;51.10;27.10;;;;;;;4.51;83.94;101505.46;126619;1284;99139;-75
2022/11/27 09:00:34;;;;;;;48.20;25.30;;;;;;;4.59;83.78;101502.56;126636;1274;99137;-76
2022/11/27 09:03:37;;;;;;;44.70;24.70;;;;;;;4.65;83.86;101502.25;126660;1294;98075;-74
2022/11/27 09:06:40;;;;;;;54.20;30.40;;;;;;;4.68;83.73;101506.30;126582;1294;98001;-74
2022/11/27 09:09:43;;;;;;;55.50;31.50;;;;;;;4.69;83.68;101512.03;126703;1294;98111;-74
2022/11/27 09:12:47;;;;;;;56.90;33.50;;;;;;;4.71;83.59;101511.94;126672;1288;99058;-74
2022/11/27 09:15:49;;;;;;;65.90;36.10;;;;;;;4.71;83.63;101514.23;126715;1294;99084;-73
2022/11/27 09:18:53;;;;;;;60.60;33.00;;;;;;;4.69;83.76;101519.09;126607;1275;98029;-73
2022/11/27 09:21:56;;;;;;;52.20;26.90;;;;;;;4.73;83.65;101520.11;126530;1271;97991;-73
2022/11/27 09:24:59;;;;;;;51.30;26.70;;;;;;;4.79;83.69;101519.83;126588;1281;98731;-73
2022/11/27 09:28:01;;;;;;;52.50;27.60;;;;;;;4.87;83.68;101512.65;126723;1288;97976;-74
2022/11/27 09:31:06;;;;;;;51.30;27.80;;;;;;;4.97;83.86;101516.16;126554;1287;98483;-72
2022/11/27 09:34:09;;;;;;;53.40;29.60;;;;;;;5.02;83.79;101508.30;126706;1295;97989;-74
2022/11/27 09:37:12;;;;;;;61.30;33.30;;;;;;;5.06;83.69;101502.27;126654;1277;100022;-73
2022/11/27 09:40:16;;;;;;;62.20;33.90;;;;;;;5.07;83.59;101502.56;126765;1295;98015;-72
2022/11/27 09:43:27;;;;;;;62.00;33.80;;;;;;;5.06;83.60;101501.58;126699;1288;98781;-75
2022/11/27 09:46:35;;;;;;;73.50;41.70;;;;;;;5.05;83.62;101506.90;126879;1293;99023;-74
2022/11/27 09:49:43;;;;;;;140.80;91.90;;;;;;;5.01;83.36;101508.51;126698;1295;97979;-74
2022/11/27 09:52:51;;;;;;;66.10;35.10;;;;;;;4.99;83.53;101504.43;126688;1291;99108;-73
2022/11/27 09:55:58;;;;;;;60.80;32.20;;;;;;;5.00;83.58;101503.30;126650;1294;98952;-73
2022/11/27 09:59:01;;;;;;;57.40;29.80;;;;;;;5.04;83.60;101503.45;126680;1294;99140;-74
2022/11/27 10:02:15;;;;;;;65.30;35.50;;;;;;;5.06;83.41;101505.23;126651;1294;99106;-73
2022/11/27 10:05:21;;;;;;;65.80;36.50;;;;;;;5.09;83.17;101503.65;126728;1294;97997;-76
2022/11/27 10:08:34;;;;;;;62.50;34.20;;;;;;;5.13;83.41;101494.45;126748;1295;99150;-75
2022/11/27 10:11:47;;;;;;;58.80;31.60;;;;;;;5.16;83.35;101493.58;126880;1289;99074;-74
2022/11/27 10:15:02;;;;;;;65.60;34.10;;;;;;;5.18;83.39;101490.13;126656;1289;99141;-74
2022/11/27 10:18:14;;;;;;;62.60;34.40;;;;;;;5.18;83.32;101489.05;126681;1295;98009;-72
2022/11/27 10:21:25;;;;;;;60.70;34.10;;;;;;;5.20;83.01;101485.77;126627;1295;97988;-74
2022/11/27 10:24:37;;;;;;;60.00;34.50;;;;;;;5.22;83.19;101484.98;126729;1302;99154;-75
2022/11/27 10:27:43;;;;;;;;;;;;;;;5.18;82.80;101482.56;126525;1295;98619;-72
2022/11/27 10:30:52;;;;;;;90.90;39.00;;;;;;;5.04;82.87;101477.49;126575;1296;98008;-73
2022/11/27 10:33:58;;;;;;;62.70;33.20;;;;;;;5.03;83.29;101475.44;126657;1295;99183;-75
2022/11/27 10:37:10;;;;;;;76.50;38.00;;;;;;;5.13;83.03;101474.02;126718;1296;98078;-74
2022/11/27 10:40:20;;;;;;;81.40;39.10;;;;;;;5.16;83.07;101472.77;126586;1288;98064;-74
2022/11/27 10:43:25;;;;;;;63.20;34.80;;;;;;;5.24;83.20;101472.29;126544;1294;99030;-74
2022/11/27 10:46:33;;;;;;;85.00;44.70;;;;;;;5.33;83.24;101473.40;126659;1295;99259;-74
2022/11/27 10:49:39;;;;;;;71.70;38.30;;;;;;;5.36;83.11;101470.41;126633;1294;97993;-74
2022/11/27 10:52:52;;;;;;;64.00;34.30;;;;;;;5.38;82.95;101469.54;126598;1295;98023;-73
2022/11/27 10:56:07;;;;;;;63.90;33.50;;;;;;;5.40;82.75;101465.57;126638;1287;98335;-74
2022/11/27 10:59:12;;;;;;;61.00;33.00;;;;;;;5.40;82.75;101459.52;126631;1294;98765;-74
2022/11/27 11:02:33;;;;;;;52.30;29.50;;;;;;;5.38;82.87;101456.34;126905;1290;98745;-74
2022/11/27 11:05:36;;;;;;;56.10;30.70;;;;;;;5.36;82.79;101453.42;126705;1291;98737;-75
2022/11/27 11:08:39;;;;;;;49.50;27.30;;;;;;;5.38;82.91;101455.42;126637;1295;99141;-75
2022/11/27 11:11:42;;;;;;;49.50;28.00;;;;;;;5.42;82.69;101456.94;126653;1281;98082;-74
2022/11/27 11:14:51;;;;;;;54.70;33.40;;;;;;;5.46;82.68;101450.88;126680;1294;98834;-74
2022/11/27 11:17:53;;;;;;;52.10;28.50;;;;;;;5.49;82.73;101451.92;126725;1294;99175;-75
2022/11/27 11:20:58;;;;;;;50.70;29.00;;;;;;;5.50;82.69;101453.31;126640;1290;99185;-73
2022/11/27 11:24:03;;;;;;;54.90;30.40;;;;;;;5.50;82.74;101450.86;126745;1294;98665;-74
2022/11/27 11:27:11;;;;;;;58.90;31.90;;;;;;;5.50;82.77;101445.17;126902;1287;99250;-75
2022/11/27 11:30:23;;;;;;;56.80;30.60;;;;;;;5.48;82.84;101446.37;126591;1290;97997;-74
2022/11/27 11:33:27;;;;;;;56.20;30.60;;;;;;;5.47;82.61;101442.38;126622;1302;99058;-74
2022/11/27 11:36:30;;;;;;;56.10;30.50;;;;;;;5.47;82.78;101441.30;126650;1294;98148;-74
2022/11/27 11:39:39;;;;;;;68.10;33.40;;;;;;;5.44;82.74;101443.77;126667;1294;99052;-74
2022/11/27 11:42:52;;;;;;;55.50;29.40;;;;;;;5.41;82.80;101441.16;126750;1294;98819;-75
2022/11/27 11:46:06;;;;;;;56.20;27.80;;;;;;;5.45;82.70;101440.73;126605;1294;98739;-74
2022/11/27 11:49:20;;;;;;;51.60;28.20;;;;;;;5.50;82.79;101437.77;126686;1294;98015;-74
2022/11/27 11:52:40;;;;;;;58.30;32.80;;;;;;;5.54;82.64;101426.77;126561;1302;99137;-73
2022/11/27 11:55:51;;;;;;;51.10;30.50;;;;;;;5.57;82.65;101426.79;126573;1294;99148;-73
2022/11/27 11:58:59;;;;;;;56.80;30.80;;;;;;;5.58;82.52;101421.09;126595;1294;98766;-73
2022/11/27 12:02:34;;;;;;;55.70;33.30;;;;;;;5.56;82.67;101422.63;126618;1294;98008;-75
2022/11/27 12:05:50;;;;;;;56.40;32.20;;;;;;;5.53;82.47;101423.52;126750;1280;98008;-73
2022/11/27 12:09:03;;;;;;;56.20;30.90;;;;;;;5.48;82.58;101424.98;126698;1294;98631;-76
2022/11/27 12:12:18;;;;;;;47.60;27.80;;;;;;;5.43;82.72;101421.08;126693;1289;98627;-74
2022/11/27 12:15:28;;;;;;;47.40;25.30;;;;;;;5.41;82.75;101418.56;126590;1289;98134;-73
2022/11/27 12:18:50;;;;;;;43.60;24.10;;;;;;;5.40;82.60;101414.56;126641;1292;98357;-72
2022/11/27 12:22:08;;;;;;;44.60;24.60;;;;;;;5.44;82.72;101405.48;126655;1286;98071;-75
2022/11/27 12:25:27;;;;;;;47.70;26.00;;;;;;;5.52;83.02;101402.93;126644;1295;98313;-74
2022/11/27 12:28:53;;;;;;;44.50;25.30;;;;;;;5.56;82.74;101403.19;126572;1301;98628;-74
2022/11/27 12:32:14;;;;;;;48.50;27.00;;;;;;;5.59;82.77;101407.11;126589;1288;98215;-74
2022/11/27 12:35:28;;;;;;;45.80;26.00;;;;;;;5.60;82.73;101408.42;126576;1294;98647;-74
2022/11/27 12:38:47;;;;;;;48.20;26.70;;;;;;;5.61;82.74;101402.89;126565;1295;99084;-74
2022/11/27 12:41:59;;;;;;;44.00;24.60;;;;;;;5.61;82.66;101397.95;126563;1302;98838;-74
2022/11/27 12:45:13;;;;;;;45.70;25.30;;;;;;;5.59;82.57;101396.14;126608;1291;98071;-74
2022/11/27 12:48:22;;;;;;;49.20;23.70;;;;;;;5.57;82.58;101393.45;126566;1294;98572;-74
2022/11/27 12:51:28;;;;;;;44.00;23.40;;;;;;;5.56;82.74;101390.46;126537;1295;98008;-73
2022/11/27 12:54:37;;;;;;;45.30;24.60;;;;;;;5.58;82.68;101386.66;126585;1295;99249;-72
2022/11/27 12:57:43;;;;;;;45.60;24.80;;;;;;;5.60;82.73;101385.63;126563;1295;98411;-72
2022/11/27 13:00:48;;;;;;;48.30;26.30;;;;;;;5.64;82.78;101385.73;126588;1294;99166;-75
2022/11/27 13:04:04;;;;;;;50.20;26.30;;;;;;;5.68;82.60;101386.58;126622;1295;98019;-72
2022/11/27 13:07:12;;;;;;;50.20;27.60;;;;;;;5.69;82.86;101386.48;126581;1294;99157;-74
2022/11/27 13:10:22;;;;;;;73.00;34.40;;;;;;;5.68;82.63;101390.10;126540;1293;98792;-73
2022/11/27 13:13:30;;;;;;;84.30;39.40;;;;;;;5.66;82.47;101387.44;126617;1294;98021;-72
2022/11/27 13:16:37;;;;;;;94.60;43.00;;;;;;;5.62;82.85;101387.45;126568;1298;97986;-75
2022/11/27 13:19:43;;;;;;;66.50;32.60;;;;;;;5.58;82.76;101381.01;126639;1288;98352;-72
2022/11/27 13:22:47;;;;;;;49.00;25.50;;;;;;;5.51;83.06;101380.54;126492;1295;99029;-73
2022/11/27 13:25:54;;;;;;;46.30;24.30;;;;;;;5.48;82.75;101383.90;126618;1295;98771;-72
2022/11/27 13:29:01;;;;;;;49.10;26.40;;;;;;;5.47;82.86;101387.27;126693;1294;99439;-74
2022/11/27 13:32:06;;;;;;;54.30;30.40;;;;;;;5.46;82.40;101392.62;126647;1294;98744;-73
2022/11/27 13:35:21;;;;;;;60.60;35.50;;;;;;;5.38;82.62;101395.80;126667;1294;98755;-72
2022/11/27 13:38:25;;;;;;;55.70;33.90;;;;;;;5.32;82.84;101404.30;126528;1295;98091;-72
2022/11/27 13:41:34;;;;;;;58.00;36.00;;;;;;;5.27;82.59;101400.86;126649;1295;97995;-72
2022/11/27 13:44:40;;;;;;;53.80;31.60;;;;;;;5.26;82.86;101400.21;126698;1294;97978;-74
2022/11/27 13:47:44;;;;;;;51.70;29.60;;;;;;;5.29;83.07;101401.62;126749;1294;97988;-76
2022/11/27 13:50:53;;;;;;;57.60;33.40;;;;;;;5.31;82.99;101401.52;126675;1288;99087;-72
2022/11/27 13:54:09;;;;;;;54.60;29.20;;;;;;;5.26;83.06;101403.19;126646;1294;98802;-75
2022/11/27 13:57:15;;;;;;;54.80;29.70;;;;;;;5.23;83.21;101397.05;126885;1288;98117;-74
2022/11/27 14:00:31;;;;;;;62.90;34.70;;;;;;;5.25;83.06;101397.26;126684;1292;99141;-75
2022/11/27 14:03:35;;;;;;;60.10;34.70;;;;;;;5.30;83.12;101394.52;126623;1294;99197;-75